Time;durP1;ratioP1;P1;durP2;ratioP2;P2;SDS_P1;SDS_P2;PMS_P1;PMS_P2;Temp;Humidity;BMP_temperature;BMP_pressure;BME280_temperature;BME280_humidity;BME280_pressure;Samples;Min_cycle;Max_cycle;Signal;HPM_P1;HPM_P2
2022/02/07 00:03:58;;;;;;;58.72;21.85;;;;;;;-1.17;100.00;98825.09;4955065;28;20055;-56
2022/02/07 00:06:43;;;;;;;55.10;20.55;;;;;;;-1.13;100.00;98826.88;4946709;28;20839;-63
2022/02/07 00:09:29;;;;;;;50.78;20.10;;;;;;;-1.16;100.00;98826.84;4933636;28;20090;-55
2022/02/07 00:12:15;;;;;;;51.88;20.55;;;;;;;-1.18;100.00;98818.13;4958333;28;20054;-58
2022/02/07 00:14:59;;;;;;;54.17;20.08;;;;;;;-1.63;100.00;98769.94;4976345;28;20053;-63
2022/02/07 00:17:46;;;;;;;53.22;20.67;;;;;;;-1.35;100.00;98811.88;4955153;28;20131;-55
2022/02/07 00:20:31;;;;;;;50.25;19.45;;;;;;;-1.43;100.00;98807.44;4966825;28;20058;-56
2022/02/07 00:23:18;;;;;;;54.45;20.33;;;;;;;-1.31;100.00;98815.38;4950482;28;20057;-54
2022/02/07 00:26:03;;;;;;;57.42;21.83;;;;;;;-1.27;100.00;98806.78;4962933;28;20057;-55
2022/02/07 00:28:51;;;;;;;49.90;19.70;;;;;;;-1.17;100.00;98806.91;4974994;28;20423;-55
2022/02/07 00:31:35;;;;;;;54.83;21.58;;;;;;;-1.10;100.00;98781.81;4980080;28;20053;-57
2022/02/07 00:34:20;;;;;;;54.65;21.10;;;;;;;-1.21;100.00;98740.13;4951828;28;20578;-58
2022/02/07 00:37:05;;;;;;;56.03;22.25;;;;;;;-0.94;100.00;98800.16;4948114;29;20050;-55
2022/02/07 00:39:57;;;;;;;54.70;21.70;;;;;;;-1.07;100.00;98793.09;4943321;29;20054;-56
2022/02/07 00:42:57;;;;;;;49.90;20.20;;;;;;;-1.15;100.00;98789.56;4950092;28;20136;-57
2022/02/07 00:45:54;;;;;;;55.75;21.48;;;;;;;-1.24;100.00;98789.47;4960622;28;20070;-53
2022/02/07 00:48:40;;;;;;;51.25;19.58;;;;;;;-1.33;100.00;98794.59;4935138;29;20054;-53
2022/02/07 00:51:26;;;;;;;55.05;20.35;;;;;;;-1.41;100.00;98798.84;4945939;28;20135;-60
2022/02/07 00:54:10;;;;;;;53.17;21.25;;;;;;;-1.50;100.00;98801.31;4939692;28;20583;-61
2022/02/07 00:56:55;;;;;;;52.03;21.02;;;;;;;-1.61;100.00;98789.94;4966613;28;20525;-58
2022/02/07 00:59:41;;;;;;;54.25;20.08;;;;;;;-1.73;100.00;98794.09;4965597;28;20054;-57
2022/02/07 01:02:26;;;;;;;57.72;20.35;;;;;;;-1.82;100.00;98788.78;4929765;28;20622;-61
2022/02/07 01:05:12;;;;;;;53.38;21.05;;;;;;;-1.81;100.00;98788.81;4951126;28;20054;-61
2022/02/07 01:08:00;;;;;;;59.67;20.85;;;;;;;-2.02;100.00;98766.88;4934720;28;20069;-58
2022/02/07 01:11:01;;;;;;;54.92;20.23;;;;;;;-1.93;100.00;98786.03;4947678;28;20117;-53
2022/02/07 01:16:57;;;;;;;;;;;;;;;-2.05;100.00;98791.06;4940165;28;20478;-59
2022/02/07 01:56:37;;;;;;;49.85;17.92;;;;;;;-0.98;100.00;98774.13;4951366;28;20049;-60
2022/02/07 01:59:22;;;;;;;45.85;17.85;;;;;;;-1.05;100.00;98777.53;4953755;28;20100;-55
2022/02/07 02:02:07;;;;;;;;;;;;;;;-1.10;100.00;98771.41;4951656;28;20093;-58
2022/02/07 02:04:52;;;;;;;50.15;18.52;;;;;;;-1.04;100.00;98780.16;4965345;28;19985;-59
2022/02/07 02:07:50;;;;;;;52.17;20.38;;;;;;;-1.08;100.00;98772.28;4953224;28;20601;-57
2022/02/07 02:10:49;;;;;;;54.60;19.42;;;;;;;-1.09;100.00;98768.84;4937770;28;20076;-57
2022/02/07 02:14:11;;;;;;;48.75;19.20;;;;;;;-1.10;100.00;98768.81;4955918;28;20054;-62
2022/02/07 02:47:00;;;;;;;51.70;18.92;;;;;;;-1.17;100.00;98747.09;4900848;29;20078;-60
2022/02/07 02:49:49;;;;;;;45.75;16.60;;;;;;;-1.01;100.00;98735.97;4899508;29;20096;-59
2022/02/07 02:52:34;;;;;;;51.22;17.52;;;;;;;-1.25;100.00;98681.16;4902299;29;20066;-59
2022/02/07 02:55:20;;;;;;;45.75;17.10;;;;;;;-0.68;100.00;98733.63;4904450;29;20054;-60
2022/02/07 02:58:07;;;;;;;51.00;18.30;;;;;;;-0.65;100.00;98719.75;4912146;29;20077;-58
2022/02/07 03:00:54;;;;;;;51.63;16.80;;;;;;;-0.56;100.00;98730.22;4896645;29;20052;-60
2022/02/07 03:04:02;;;;;;;43.67;16.92;;;;;;;-0.79;100.00;98682.38;4903744;29;20066;-56
2022/02/07 03:06:49;;;;;;;44.70;16.92;;;;;;;-0.47;100.00;98730.31;4886653;29;20067;-58
2022/02/07 03:09:34;;;;;;;41.08;15.50;;;;;;;-0.45;100.00;98737.25;4885963;29;20456;-58
2022/02/07 03:12:19;;;;;;;41.00;15.45;;;;;;;-0.49;100.00;98717.28;4874880;29;20081;-55
2022/02/07 03:16:36;;;;;;;40.38;15.18;;;;;;;-0.41;100.00;98728.63;4873447;29;20491;-58
2022/02/07 03:18:09;;;;;;;44.75;16.80;;;;;;;-0.37;100.00;98732.97;4875724;29;20084;-58
2022/02/07 03:20:55;;;;;;;41.60;16.42;;;;;;;-0.31;100.00;98740.81;4919769;29;20054;-59
2022/02/07 03:23:41;;;;;;;47.38;16.80;;;;;;;-0.48;100.00;98734.63;4914191;29;20206;-57
2022/02/07 03:26:26;;;;;;;47.83;16.38;;;;;;;-0.39;100.00;98733.84;4926913;29;20055;-61
2022/02/07 03:29:14;;;;;;;40.85;15.65;;;;;;;-0.27;100.00;98724.34;4937861;28;20087;-58
2022/02/07 03:32:05;;;;;;;41.65;15.52;;;;;;;-0.20;100.00;98733.06;4949673;28;20058;-55
2022/02/07 03:34:58;;;;;;;39.50;15.70;;;;;;;-0.19;100.00;98727.88;4918178;29;20491;-60
2022/02/07 03:37:42;;;;;;;43.55;16.50;;;;;;;-0.07;100.00;98720.09;4937268;29;20151;-56
2022/02/07 03:40:31;;;;;;;36.90;15.80;;;;;;;-0.05;100.00;98715.78;4953864;28;20058;-56
2022/02/07 03:43:17;;;;;;;40.03;15.30;;;;;;;0.12;100.00;98717.59;4929829;29;20058;-61
2022/02/07 03:46:02;;;;;;;41.67;15.52;;;;;;;0.17;100.00;98715.00;4918119;29;20067;-62
2022/02/07 03:48:47;;;;;;;34.83;15.10;;;;;;;0.27;100.00;98707.25;4933989;29;20101;-67
2022/02/07 03:51:32;;;;;;;34.28;15.10;;;;;;;0.17;100.00;98701.13;4953999;28;20078;-61
2022/02/07 03:54:17;;;;;;;34.83;14.90;;;;;;;0.19;100.00;98721.97;4945459;28;20148;-57
2022/02/07 03:57:04;;;;;;;36.47;13.88;;;;;;;0.21;100.00;98710.69;4928074;28;20086;-61
2022/02/07 03:59:51;;;;;;;39.47;15.30;;;;;;;0.26;100.00;98721.13;4947021;28;20477;-61
2022/02/07 04:02:43;;;;;;;42.08;14.38;;;;;;;0.23;100.00;98727.19;4935357;29;20059;-61
2022/02/07 04:05:49;;;;;;;38.83;14.82;;;;;;;0.25;100.00;98720.25;4945303;29;20066;-57
2022/02/07 04:08:42;;;;;;;35.78;14.40;;;;;;;0.29;100.00;98719.41;4931487;29;20083;-53
2022/02/07 04:11:41;;;;;;;34.83;13.45;;;;;;;0.35;100.00;98714.19;4905211;29;20123;-54
2022/02/07 04:14:27;;;;;;;36.30;14.07;;;;;;;0.48;100.00;98707.28;4946095;28;20209;-56
2022/02/07 04:17:30;;;;;;;40.15;14.18;;;;;;;0.50;100.00;98711.66;4921308;29;20058;-56
2022/02/07 04:20:23;;;;;;;33.88;14.02;;;;;;;0.47;100.00;98711.63;4948924;28;20099;-54
2022/02/07 04:23:08;;;;;;;42.38;14.23;;;;;;;0.46;100.00;98711.63;4944132;29;20057;-55
2022/02/07 04:26:11;;;;;;;29.73;12.48;;;;;;;0.45;100.00;98710.78;4931172;29;20435;-58
2022/02/07 04:28:56;;;;;;;27.05;12.18;;;;;;;0.40;100.00;98694.25;4956463;28;20073;-54
2022/02/07 04:31:42;;;;;;;29.55;12.48;;;;;;;0.33;100.00;98673.34;4945745;28;20137;-53
2022/02/07 04:34:31;;;;;;;32.53;12.98;;;;;;;0.53;100.00;98702.94;4931729;29;20189;-53
2022/02/07 04:37:17;;;;;;;34.90;13.55;;;;;;;0.51;100.00;98691.66;4929294;29;20134;-55
2022/02/07 04:40:03;;;;;;;32.80;12.20;;;;;;;0.74;100.00;98700.41;4945381;28;20091;-57
2022/02/07 04:42:53;;;;;;;25.58;10.45;;;;;;;0.65;100.00;98690.81;4916058;28;20083;-61
2022/02/07 04:45:57;;;;;;;26.92;11.35;;;;;;;0.62;100.00;98700.34;4942811;29;20090;-57
2022/02/07 05:00:33;;;;;;;21.85;8.88;;;;;;;0.88;100.00;98699.56;4961042;28;20057;-55
2022/02/07 05:03:29;;;;;;;25.10;9.38;;;;;;;0.60;100.00;98648.22;4944098;29;20534;-63
2022/02/07 05:15:26;;;;;;;22.23;9.63;;;;;;;0.68;100.00;98684.75;4964194;28;20046;-61
2022/02/07 05:18:11;;;;;;;24.73;10.45;;;;;;;0.80;100.00;98685.63;4948261;29;20109;-59
2022/02/07 05:21:17;;;;;;;30.27;12.82;;;;;;;0.80;100.00;98687.34;4961900;28;20093;-58
2022/02/07 05:24:20;;;;;;;28.60;12.25;;;;;;;0.93;100.00;98684.75;4961408;28;20890;-59
2022/02/07 05:27:31;;;;;;;30.35;12.27;;;;;;;0.72;100.00;98642.13;4898988;29;20103;-60
2022/02/07 05:30:48;;;;;;;35.00;12.45;;;;;;;0.80;100.00;98679.53;4891285;29;20585;-63
2022/02/07 05:33:51;;;;;;;28.25;12.18;;;;;;;0.71;100.00;98685.59;4903899;29;20162;-62
2022/02/07 05:36:50;;;;;;;30.67;13.77;;;;;;;0.65;100.00;98687.34;4869177;29;20559;-62
2022/02/07 05:40:06;;;;;;;33.60;12.52;;;;;;;0.70;100.00;98685.63;4886121;29;20067;-63
2022/02/07 05:43:19;;;;;;;33.30;12.85;;;;;;;0.75;100.00;98674.31;4881208;29;20055;-64
2022/02/07 05:46:16;;;;;;;31.40;13.13;;;;;;;0.93;100.00;98689.09;4882494;29;20181;-64
2022/02/07 05:49:22;;;;;;;33.80;13.05;;;;;;;0.84;100.00;98678.66;4881865;29;20365;-65
2022/02/07 05:52:27;;;;;;;32.28;13.43;;;;;;;0.76;100.00;98683.00;4897652;29;20062;-63
2022/02/07 05:55:33;;;;;;;36.55;13.95;;;;;;;0.85;100.00;98681.28;4894758;29;20055;-63
2022/02/07 05:58:36;;;;;;;34.13;14.25;;;;;;;0.94;100.00;98686.50;4881747;29;20655;-60
2022/02/07 06:01:41;;;;;;;37.00;14.98;;;;;;;0.84;100.00;98676.06;4902292;29;20114;-63
2022/02/07 06:04:26;;;;;;;36.45;14.30;;;;;;;0.75;100.00;98669.09;4891570;29;20102;-62
2022/02/07 06:07:12;;;;;;;35.85;15.18;;;;;;;0.99;100.00;98678.69;4909098;29;20095;-63
2022/02/07 06:09:57;;;;;;;35.95;15.63;;;;;;;1.13;100.00;98674.31;4898614;29;20070;-62
2022/02/07 06:12:44;;;;;;;;;;;;;;;1.21;100.00;98672.56;4912524;29;20456;-55
2022/02/07 06:15:29;;;;;;;33.05;13.48;;;;;;;1.32;100.00;98681.25;4919961;29;19965;-58
2022/02/07 06:18:17;;;;;;;32.97;12.77;;;;;;;0.83;100.00;98591.69;4909538;29;20098;-56
2022/02/07 06:21:06;;;;;;;41.45;14.65;;;;;;;0.97;100.00;98667.34;4931522;29;20077;-57
2022/02/07 06:23:55;;;;;;;30.13;13.10;;;;;;;1.01;100.00;98669.97;4905217;29;20063;-63
2022/02/07 06:26:41;;;;;;;34.10;13.82;;;;;;;1.06;100.00;98662.16;4908130;29;20107;-58
2022/02/07 06:29:32;;;;;;;39.72;13.63;;;;;;;1.12;100.00;98677.81;4892748;29;20695;-56
2022/02/07 06:32:18;;;;;;;39.78;13.30;;;;;;;1.24;100.00;98672.56;4918788;29;20054;-61
2022/02/07 06:35:03;;;;;;;36.63;13.98;;;;;;;1.18;100.00;98676.06;4910157;29;20055;-60
2022/02/07 06:37:51;;;;;;;30.55;13.93;;;;;;;1.16;100.00;98687.38;4909325;28;20044;-63
2022/02/07 06:40:37;;;;;;;36.17;13.32;;;;;;;1.04;100.00;98687.38;4933611;29;20079;-60
2022/02/07 06:43:23;;;;;;;35.72;13.27;;;;;;;1.11;100.00;98678.69;4946803;28;20761;-59
2022/02/07 06:46:08;;;;;;;32.78;14.30;;;;;;;1.05;100.00;98687.38;4955341;28;20061;-59
2022/02/07 06:48:53;;;;;;;;;;;;;;;1.09;100.00;98688.22;4954834;28;20526;-63
2022/02/07 06:51:38;;;;;;;31.48;13.38;;;;;;;0.77;100.00;98650.81;4937824;28;20021;-63
2022/02/07 06:54:23;;;;;;;;;;;;;;;1.18;100.00;98693.47;4968328;28;20054;-61
2022/02/07 06:57:08;;;;;;;33.80;12.98;;;;;;;1.24;100.00;98698.69;4969793;28;19929;-62
2022/02/07 06:59:52;;;;;;;34.63;13.55;;;;;;;1.26;100.00;98689.13;4943697;28;20054;-59
2022/02/07 07:02:48;;;;;;;33.50;12.93;;;;;;;1.27;100.00;98686.47;4961159;28;20119;-55
2022/02/07 07:05:33;;;;;;;30.17;13.45;;;;;;;1.43;100.00;98692.56;4945019;28;20096;-62
2022/02/07 07:08:19;;;;;;;31.50;13.38;;;;;;;1.39;100.00;98688.22;4957869;28;20834;-56
2022/02/07 07:11:05;;;;;;;35.95;14.23;;;;;;;1.24;100.00;98685.63;4925676;29;20062;-61
2022/02/07 07:13:56;;;;;;;36.70;14.40;;;;;;;1.24;100.00;98657.78;4948198;28;20058;-60
2022/02/07 07:16:51;;;;;;;33.85;13.10;;;;;;;1.47;100.00;98695.19;4946819;28;20131;-60
2022/02/07 07:19:40;;;;;;;35.45;13.48;;;;;;;1.34;100.00;98688.22;4948254;28;20087;-60
2022/02/07 07:22:25;;;;;;;34.25;13.10;;;;;;;1.18;100.00;98643.88;4965338;28;20614;-62
2022/02/07 07:25:15;;;;;;;31.70;13.43;;;;;;;1.49;100.00;98684.72;4933879;29;20122;-59
2022/02/07 07:28:04;;;;;;;32.15;12.10;;;;;;;1.64;100.00;98682.06;4912913;29;20051;-60
2022/02/07 07:30:57;;;;;;;32.90;13.37;;;;;;;1.62;100.00;98679.47;4941309;28;20451;-58
2022/02/07 07:33:52;;;;;;;29.77;12.77;;;;;;;1.75;100.00;98689.03;4944584;28;20339;-69
2022/02/07 07:36:41;;;;;;;34.72;13.27;;;;;;;1.63;100.00;98629.00;4953663;28;20185;-61
2022/02/07 07:39:27;;;;;;;24.38;11.52;;;;;;;2.03;100.00;98682.84;4944583;28;20050;-58
2022/02/07 07:42:14;;;;;;;33.15;13.48;;;;;;;2.01;100.00;98673.28;4937538;28;20058;-56
2022/02/07 07:45:32;;;;;;;29.33;12.32;;;;;;;2.27;100.00;98684.47;4954061;28;20228;-63
2022/02/07 07:48:49;;;;;;;27.38;12.60;;;;;;;2.31;100.00;98673.13;4909498;29;20054;-60
2022/02/07 07:51:57;;;;;;;30.05;12.70;;;;;;;2.41;100.00;98685.28;4902837;29;20180;-59
2022/02/07 08:04:27;;;;;;;23.75;11.45;;;;;;;2.54;100.00;98686.94;4886871;29;20065;-65
2022/02/07 08:12:55;;;;;;;30.65;13.40;;;;;;;2.68;100.00;98678.13;4883567;29;20111;-63
2022/02/07 08:15:42;;;;;;;26.27;13.10;;;;;;;2.74;100.00;98682.47;4863252;29;20051;-63
2022/02/07 08:18:26;;;;;;;26.95;12.45;;;;;;;2.82;100.00;98681.53;4870984;29;20600;-61
2022/02/07 08:21:11;;;;;;;30.00;12.90;;;;;;;2.63;100.00;98664.22;4897192;29;20048;-62
2022/02/07 08:23:56;;;;;;;27.15;12.57;;;;;;;2.79;100.00;98685.91;4870983;29;20297;-62
2022/02/07 08:26:40;;;;;;;27.97;13.70;;;;;;;2.77;100.00;98678.06;4903339;29;20563;-60
2022/02/07 08:29:27;;;;;;;28.65;11.70;;;;;;;2.88;100.00;98683.22;4852931;29;20052;-61
2022/02/07 08:32:14;;;;;;;23.65;11.52;;;;;;;2.77;100.00;98680.69;4875260;29;20101;-65
2022/02/07 08:35:01;;;;;;;21.48;12.35;;;;;;;2.72;100.00;98682.47;4863191;29;20541;-62
2022/02/07 08:37:49;;;;;;;23.27;11.50;;;;;;;2.82;100.00;98678.03;4897315;29;20252;-59
2022/02/07 08:40:37;;;;;;;22.65;11.50;;;;;;;2.69;100.00;98686.88;4931913;28;20081;-61
2022/02/07 08:43:22;;;;;;;29.10;12.40;;;;;;;2.79;100.00;98676.31;4940749;28;20074;-63
2022/02/07 08:46:08;;;;;;;19.75;10.63;;;;;;;2.85;100.00;98693.72;4957299;28;20108;-63
2022/02/07 08:48:54;;;;;;;22.05;11.40;;;;;;;3.06;100.00;98681.38;4931319;28;20569;-64
2022/02/07 08:51:40;;;;;;;17.50;10.43;;;;;;;3.09;100.00;98673.47;4969407;28;20116;-60
2022/02/07 08:54:28;;;;;;;21.00;10.90;;;;;;;3.19;100.00;98674.25;4954044;28;20197;-61
2022/02/07 08:57:25;;;;;;;20.52;10.73;;;;;;;3.15;100.00;98675.16;4957578;28;20074;-62
2022/02/07 09:00:17;;;;;;;18.85;11.23;;;;;;;2.85;100.00;98678.03;4956096;28;20050;-61
2022/02/07 09:06:27;;;;;;;19.30;10.10;;;;;;;3.22;100.00;98671.63;4932109;29;20078;-62
2022/02/07 09:09:20;;;;;;;20.40;10.63;;;;;;;3.39;100.00;98657.50;4940369;28;20856;-65
2022/02/07 09:12:05;;;;;;;14.65;9.88;;;;;;;3.26;100.00;98660.22;4937368;29;20711;-63
2022/02/07 09:15:16;;;;;;;19.30;10.73;;;;;;;3.07;100.00;98661.25;4949609;28;20522;-61
2022/02/07 09:18:02;;;;;;;21.00;10.77;;;;;;;3.13;100.00;98653.38;4912963;29;20166;-62
2022/02/07 09:20:47;;;;;;;21.55;10.80;;;;;;;3.42;100.00;98648.72;4967843;28;20054;-63
2022/02/07 09:23:34;;;;;;;21.63;11.15;;;;;;;3.60;100.00;98645.94;4950416;28;20573;-66
2022/02/07 09:26:19;;;;;;;19.15;10.25;;;;;;;3.30;100.00;98615.69;4922293;29;20062;-63
2022/02/07 09:29:03;;;;;;;16.85;10.77;;;;;;;3.33;100.00;98633.09;4967032;28;20048;-61
2022/02/07 09:31:48;;;;;;;21.50;10.93;;;;;;;3.69;100.00;98637.97;4961144;28;20065;-63
2022/02/07 09:34:34;;;;;;;19.85;11.18;;;;;;;3.74;100.00;98644.91;4949580;29;20062;-63
2022/02/07 09:37:20;;;;;;;17.90;10.25;;;;;;;3.77;100.00;98639.59;4944143;28;20156;-68
2022/02/07 09:40:06;;;;;;;17.23;10.00;;;;;;;3.62;100.00;98641.53;4942508;28;20174;-62
2022/02/07 09:42:57;;;;;;;20.88;10.88;;;;;;;3.56;100.00;98633.75;4943747;28;20062;-62
2022/02/07 09:45:44;;;;;;;19.17;10.77;;;;;;;3.49;100.00;98638.16;4970212;28;20126;-66
2022/02/07 09:48:29;;;;;;;24.95;11.88;;;;;;;3.61;100.00;98634.56;4952940;28;20054;-61
2022/02/07 09:51:15;;;;;;;22.83;10.70;;;;;;;3.51;100.00;98636.41;4961890;28;20054;-65
2022/02/07 09:54:00;;;;;;;21.35;10.75;;;;;;;3.61;100.00;98639.81;4954576;28;20101;-62
2022/02/07 09:56:49;;;;;;;19.05;11.68;;;;;;;3.76;100.00;98653.59;4937997;28;20120;-62
2022/02/07 09:59:38;;;;;;;22.45;10.20;;;;;;;3.46;100.00;98643.44;4949833;28;20116;-63
2022/02/07 10:02:52;;;;;;;24.15;11.77;;;;;;;3.51;100.00;98643.38;4970622;28;20050;-61
2022/02/07 10:05:36;;;;;;;22.85;11.77;;;;;;;3.71;100.00;98638.81;4954194;28;20046;-64
2022/02/07 10:19:55;;;;;;;18.20;9.68;;;;;;;3.27;100.00;98581.66;4946237;29;20482;-60
2022/02/07 10:34:28;;;;;;;19.63;10.20;;;;;;;3.58;100.00;98632.84;4931680;28;20526;-67
2022/02/07 10:38:45;;;;;;;15.48;8.60;;;;;;;3.64;100.00;98635.38;4944656;29;20119;-64
2022/02/07 10:44:45;;;;;;;17.48;9.05;;;;;;;3.63;100.00;98645.88;4919945;28;20085;-61
2022/02/07 10:47:40;;;;;;;17.52;9.65;;;;;;;3.67;100.00;98634.47;4932690;29;20054;-61
2022/02/07 10:50:25;;;;;;;16.02;8.52;;;;;;;3.63;100.00;98622.28;4948031;29;20317;-61
2022/02/07 10:53:10;;;;;;;15.60;9.35;;;;;;;3.80;100.00;98636.94;4927594;28;20082;-61
2022/02/07 10:55:57;;;;;;;15.88;9.57;;;;;;;3.62;100.00;98616.19;4920563;29;20058;-59
2022/02/07 10:58:43;;;;;;;16.33;9.07;;;;;;;3.73;100.00;98624.78;4939997;29;20124;-65
2022/02/07 11:01:56;;;;;;;14.55;9.18;;;;;;;3.84;100.00;98620.28;4918796;29;20059;-61
2022/02/07 11:04:43;;;;;;;18.35;9.15;;;;;;;3.58;100.00;98629.34;4932554;28;20110;-61
2022/02/07 11:07:31;;;;;;;18.10;9.15;;;;;;;3.47;100.00;98584.94;4933481;29;20519;-59
2022/02/07 11:10:37;;;;;;;17.77;9.50;;;;;;;3.65;100.00;98618.75;4933224;29;20594;-62
2022/02/07 11:16:45;;;;;;;16.50;9.85;;;;;;;3.83;100.00;98628.19;4959065;28;20105;-65
2022/02/07 11:22:53;;;;;;;22.20;9.68;;;;;;;3.79;100.00;98624.72;4927492;29;20058;-62
2022/02/07 11:25:50;;;;;;;17.67;10.00;;;;;;;3.81;100.00;98617.69;4957723;28;20066;-62
2022/02/07 11:28:42;;;;;;;21.20;10.13;;;;;;;3.82;100.00;98619.47;4935873;28;20106;-67
2022/02/07 11:31:39;;;;;;;18.45;10.07;;;;;;;3.97;100.00;98619.28;4950661;28;20604;-61
2022/02/07 11:34:25;;;;;;;19.83;10.68;;;;;;;3.86;100.00;98615.91;4939773;28;20580;-64
2022/02/07 11:37:23;;;;;;;20.20;10.30;;;;;;;3.94;100.00;98619.31;4939738;29;20101;-67
2022/02/07 11:40:29;;;;;;;17.65;10.20;;;;;;;3.92;100.00;98631.56;4948148;29;20114;-59
2022/02/07 11:43:18;;;;;;;21.83;10.60;;;;;;;3.75;100.00;98614.28;4945689;29;20056;-68
2022/02/07 11:46:03;;;;;;;17.45;10.07;;;;;;;3.74;100.00;98626.56;4970140;28;20137;-59
2022/02/07 11:48:52;;;;;;;;;;;;;;;3.75;100.00;98623.03;4950497;28;20089;-62
2022/02/07 11:51:40;;;;;;;19.52;10.02;;;;;;;3.78;100.00;98612.53;4940201;28;20383;-61
2022/02/07 11:54:26;;;;;;;18.10;10.35;;;;;;;3.72;100.00;98609.97;4945697;28;20057;-63
2022/02/07 11:57:21;;;;;;;22.10;10.30;;;;;;;3.92;100.00;98612.38;4944217;29;20427;-60
2022/02/07 12:00:18;;;;;;;23.35;10.77;;;;;;;3.88;100.00;98624.63;4936202;28;20054;-62
2022/02/07 12:03:06;;;;;;;20.83;9.90;;;;;;;3.79;100.00;98621.22;4934745;29;20050;-62
2022/02/07 12:05:55;;;;;;;27.58;11.02;;;;;;;3.71;100.00;98620.44;4948017;28;20431;-62
2022/02/07 12:08:40;;;;;;;18.65;10.40;;;;;;;3.72;100.00;98624.84;4943742;29;20054;-65
2022/02/07 12:11:43;;;;;;;18.20;10.30;;;;;;;3.84;100.00;98624.69;4938352;28;20065;-63
2022/02/07 12:14:33;;;;;;;19.70;10.13;;;;;;;3.95;100.00;98623.66;4945592;28;20054;-60
2022/02/07 12:17:47;;;;;;;18.45;10.23;;;;;;;4.02;100.00;98630.59;4954079;28;20070;-63
2022/02/07 12:20:37;;;;;;;23.15;11.25;;;;;;;3.94;100.00;98624.56;4949663;28;20467;-62
2022/02/07 12:23:31;;;;;;;20.63;10.88;;;;;;;4.09;100.00;98624.38;4946860;29;20077;-63
2022/02/07 12:26:17;;;;;;;19.55;11.15;;;;;;;3.92;100.00;98620.22;4933540;29;20106;-67
2022/02/07 12:29:08;;;;;;;22.50;11.43;;;;;;;3.85;100.00;98615.94;4952119;28;20058;-62
2022/02/07 12:31:54;;;;;;;23.25;11.10;;;;;;;3.65;100.00;98610.91;4958563;28;20423;-60
2022/02/07 12:34:40;;;;;;;20.52;10.68;;;;;;;3.64;100.00;98618.81;4931854;29;20075;-62
2022/02/07 12:37:24;;;;;;;20.05;11.32;;;;;;;3.64;100.00;98617.03;4931735;29;20169;-60
2022/02/07 12:40:10;;;;;;;21.73;11.75;;;;;;;3.71;100.00;98605.59;4942591;29;20094;-66
2022/02/07 12:42:56;;;;;;;25.90;11.10;;;;;;;3.84;100.00;98616.81;4938930;28;20442;-61
2022/02/07 12:45:41;;;;;;;;;;;;;;;3.94;100.00;98618.44;4934626;28;20051;-62
2022/02/07 12:48:33;;;;;;;21.60;11.93;;;;;;;3.88;100.00;98618.53;4931936;29;19941;-62
2022/02/07 12:51:19;;;;;;;22.75;11.45;;;;;;;3.75;100.00;98588.09;4949948;29;20050;-63
2022/02/07 12:54:04;;;;;;;23.83;13.02;;;;;;;3.89;100.00;98615.00;4935927;29;20620;-65
2022/02/07 12:56:50;;;;;;;22.63;13.25;;;;;;;3.83;100.00;98615.06;4934976;29;20095;-64
2022/02/07 12:59:35;;;;;;;20.30;11.60;;;;;;;3.73;100.00;98605.59;4960716;28;20064;-62
2022/02/07 13:02:27;;;;;;;24.90;12.05;;;;;;;3.85;100.00;98605.44;4949802;28;20054;-63
2022/02/07 13:05:15;;;;;;;21.17;12.20;;;;;;;4.00;100.00;98607.88;4946064;29;20054;-63
2022/02/07 13:08:02;;;;;;;21.05;11.07;;;;;;;3.91;100.00;98610.59;4948294;28;20070;-67
2022/02/07 13:10:55;;;;;;;19.10;10.48;;;;;;;3.73;100.00;98618.69;4949280;28;20058;-62
2022/02/07 13:13:48;;;;;;;19.75;11.02;;;;;;;3.82;100.00;98622.09;4920471;29;20400;-63
2022/02/07 13:16:35;;;;;;;19.92;10.25;;;;;;;3.87;100.00;98622.00;4945355;29;20106;-64
2022/02/07 13:19:21;;;;;;;22.92;11.02;;;;;;;3.81;100.00;98607.22;4934074;28;20051;-60
2022/02/07 13:22:08;;;;;;;19.77;11.05;;;;;;;3.59;100.00;98612.72;4902630;29;20050;-61
2022/02/07 13:24:55;;;;;;;23.65;12.35;;;;;;;3.56;100.00;98602.31;4913406;29;20086;-63
2022/02/07 13:27:40;;;;;;;28.60;13.10;;;;;;;3.50;100.00;98594.50;4934021;29;20560;-62
2022/02/07 13:30:25;;;;;;;29.67;13.43;;;;;;;3.69;100.00;98617.00;4938079;28;20423;-67
2022/02/07 13:33:10;;;;;;;26.73;12.25;;;;;;;3.70;100.00;98629.22;4928394;28;20060;-61
2022/02/07 13:35:56;;;;;;;27.42;12.70;;;;;;;3.47;100.00;98586.66;4939307;28;20182;-64
2022/02/07 13:38:40;;;;;;;24.40;12.60;;;;;;;3.72;100.00;98617.81;4939037;28;20479;-60
2022/02/07 13:41:26;;;;;;;22.73;12.65;;;;;;;3.79;100.00;98608.13;4944465;28;20063;-59
2022/02/07 13:44:11;;;;;;;22.17;11.60;;;;;;;3.76;100.00;98606.41;4940637;29;20057;-60
2022/02/07 13:47:03;;;;;;;20.77;10.90;;;;;;;3.64;100.00;98608.34;4947513;28;20057;-61
2022/02/07 13:49:57;;;;;;;22.23;11.18;;;;;;;3.65;100.00;98607.44;4921918;29;20051;-61
2022/02/07 13:52:45;;;;;;;18.25;11.05;;;;;;;3.50;100.00;98604.97;4944300;29;20558;-61
2022/02/07 13:55:35;;;;;;;24.67;12.02;;;;;;;3.43;100.00;98598.06;4943909;29;20727;-60
2022/02/07 13:58:29;;;;;;;21.73;11.70;;;;;;;3.55;100.00;98611.91;4946467;29;20110;-63
2022/02/07 14:01:14;;;;;;;21.98;10.88;;;;;;;3.27;100.00;98607.84;4934153;28;20073;-63
2022/02/07 14:03:59;;;;;;;21.05;11.23;;;;;;;3.20;100.00;98623.59;4934513;29;20083;-63
2022/02/07 14:07:09;;;;;;;20.50;11.15;;;;;;;3.39;100.00;98620.81;4908059;29;20111;-65
2022/02/07 14:09:54;;;;;;;21.33;12.05;;;;;;;3.35;100.00;98633.94;4915835;28;20074;-62
2022/02/07 14:12:39;;;;;;;20.15;11.27;;;;;;;3.32;100.00;98626.13;4932033;29;20050;-64
2022/02/07 14:15:24;;;;;;;24.88;12.32;;;;;;;3.37;100.00;98619.09;4928967;28;20620;-63
2022/02/07 14:18:12;;;;;;;24.20;12.20;;;;;;;3.43;100.00;98627.75;4949088;28;20121;-62
2022/02/07 14:21:08;;;;;;;27.52;13.48;;;;;;;3.33;100.00;98612.16;4938844;29;20543;-62
2022/02/07 14:23:55;;;;;;;27.58;12.75;;;;;;;3.29;100.00;98629.63;4923081;29;20094;-65
2022/02/07 14:26:40;;;;;;;28.85;13.65;;;;;;;3.37;100.00;98627.81;4947919;29;20427;-62
2022/02/07 14:29:24;;;;;;;24.23;12.98;;;;;;;3.30;100.00;98618.28;4934603;28;20586;-62
2022/02/07 14:32:09;;;;;;;26.73;13.63;;;;;;;3.27;100.00;98627.91;4949486;28;20182;-60
2022/02/07 14:34:54;;;;;;;27.17;13.55;;;;;;;3.04;100.00;98594.09;4943996;29;20050;-61
2022/02/07 14:37:38;;;;;;;25.38;12.88;;;;;;;3.07;100.00;98612.41;4945960;28;20078;-60
2022/02/07 14:40:23;;;;;;;20.60;11.68;;;;;;;3.10;100.00;98627.22;4933724;29;20069;-64
2022/02/07 14:43:16;;;;;;;23.85;12.55;;;;;;;3.11;100.00;98621.06;4932390;29;20054;-66
2022/02/07 14:48:51;;;;;;;24.30;12.63;;;;;;;3.12;100.00;98635.91;4947695;28;20054;-62
2022/02/07 14:51:36;;;;;;;25.58;12.93;;;;;;;3.08;100.00;98647.28;4948026;29;20070;-62
2022/02/07 14:54:21;;;;;;;20.45;11.65;;;;;;;3.02;100.00;98637.75;4939399;29;20534;-63
2022/02/07 14:57:06;;;;;;;20.45;12.18;;;;;;;2.96;100.00;98647.38;4932113;29;20043;-65
2022/02/07 14:59:50;;;;;;;21.60;11.80;;;;;;;2.84;100.00;98624.81;4930507;28;20065;-63
2022/02/07 15:02:35;;;;;;;26.30;12.40;;;;;;;2.88;100.00;98618.66;4950020;28;20483;-62
2022/02/07 15:05:20;;;;;;;24.08;13.05;;;;;;;3.04;100.00;98629.88;4938641;28;20061;-62
2022/02/07 15:08:06;;;;;;;21.60;12.05;;;;;;;3.10;100.00;98640.28;4937537;28;20322;-63
2022/02/07 15:10:51;;;;;;;25.25;13.57;;;;;;;3.04;100.00;98633.38;4958819;28;20610;-63
2022/02/07 15:13:35;;;;;;;21.90;11.70;;;;;;;3.07;100.00;98619.38;4941018;28;20049;-61
2022/02/07 15:16:21;;;;;;;23.02;12.32;;;;;;;3.07;100.00;98614.13;4948489;28;20490;-67
2022/02/07 15:19:07;;;;;;;24.80;12.77;;;;;;;2.92;100.00;98616.88;4921586;28;20058;-64
2022/02/07 15:21:52;;;;;;;;;;;;;;;2.96;100.00;98632.56;4941784;28;20054;-62
2022/02/07 15:24:38;;;;;;;21.63;11.57;;;;;;;2.92;100.00;98627.34;4951941;28;20318;-63
2022/02/07 15:27:25;;;;;;;19.58;11.07;;;;;;;2.94;100.00;98630.84;4951955;28;20057;-62
2022/02/07 15:30:11;;;;;;;23.35;11.90;;;;;;;2.88;100.00;98634.38;4953504;28;20078;-62
2022/02/07 15:32:59;;;;;;;22.95;12.27;;;;;;;2.85;100.00;98631.75;4954725;28;20049;-64